CheckWX is a tool to help pilots better visualize weather data.  It is not intended as a substitute for an official pre-flight weather briefing.

08:03:09 UTC

KPNM METAR
Princeton Municipal Airport
Princeton, Minnesota, USA
Current

28 mins ago

KPNM 250735Z AUTO 00000KT 4SM BR CLR 17/16 A2981 RMK AO2
Observed
May-25 @ 07:35 UTC
Visibility
Flight Rules
MVFR
Conditions
Mist
Cloud Levels
  • Clear skies
Temperature
17°C / 63°F
Dewpoint
16°C / 61°F
Humidity
94%
Altimeter
29.81" Hg
Pressure
1009.52 hPa
Previous

48 mins ago

KPNM 250715Z AUTO 00000KT 4SM BR CLR 17/16 A2981 RMK AO2
Observed
May-25 @ 07:15 UTC
Visibility
Flight Rules
MVFR
Conditions
Mist
Cloud Levels
  • Clear skies
Temperature
17°C / 63°F
Dewpoint
16°C / 61°F
Humidity
94%
Altimeter
29.81" Hg
Pressure
1009.52 hPa
Previous

1 hour ago

KPNM 250655Z AUTO 00000KT 10SM CLR 17/16 A2981 RMK AO2
Observed
May-25 @ 06:55 UTC
Visibility
Flight Rules
VFR
Cloud Levels
  • Clear skies
Temperature
17°C / 63°F
Dewpoint
16°C / 61°F
Humidity
94%
Altimeter
29.81" Hg
Pressure
1009.52 hPa